Time;durP1;ratioP1;P1;durP2;ratioP2;P2;SDS_P1;SDS_P2;PMS_P1;PMS_P2;Temp;Humidity;BMP_temperature;BMP_pressure;BME280_temperature;BME280_humidity;BME280_pressure;Samples;Min_cycle;Max_cycle;Signal;HPM_P1;HPM_P2
2022/09/18 00:01:12;;;;;;;9.35;2.90;;;;;;;11.49;100.00;97564.84;4429116;32;20034;-68
2022/09/18 00:03:39;;;;;;;8.35;3.47;;;;;;;11.58;100.00;97604.34;4427578;32;20042;-71
2022/09/18 00:06:09;;;;;;;14.48;3.47;;;;;;;11.70;100.00;97592.31;4383730;32;20046;-69
2022/09/18 00:08:37;;;;;;;6.10;3.37;;;;;;;11.62;100.00;97583.78;4383967;32;20357;-68
2022/09/18 00:11:06;;;;;;;18.90;3.67;;;;;;;11.47;100.00;97562.44;4382720;32;20174;-68
2022/09/18 00:13:34;;;;;;;9.13;3.30;;;;;;;11.57;100.00;97605.44;4382530;32;20482;-73
2022/09/18 00:16:01;;;;;;;11.55;3.05;;;;;;;11.78;100.00;97605.13;4381403;32;20034;-69
2022/09/18 00:18:28;;;;;;;13.80;4.95;;;;;;;11.69;100.00;97613.06;4377937;32;20051;-69
2022/09/18 00:20:54;;;;;;;11.10;3.22;;;;;;;11.45;100.00;97607.75;4398027;32;20060;-70
2022/09/18 00:23:20;;;;;;;8.13;2.97;;;;;;;11.68;100.00;97616.06;4383594;32;20054;-69
2022/09/18 00:25:47;;;;;;;16.98;4.22;;;;;;;11.08;100.00;97571.56;4383117;32;20414;-72
2022/09/18 00:28:13;;;;;;;3.70;2.70;;;;;;;11.51;100.00;97601.19;4382244;32;20049;-69
2022/09/18 00:30:39;;;;;;;12.60;4.00;;;;;;;11.63;100.00;97601.56;4383263;32;20043;-68
2022/09/18 00:33:06;;;;;;;13.23;4.60;;;;;;;11.40;100.00;97597.03;4383118;32;20039;-69
2022/09/18 00:35:32;;;;;;;12.75;3.47;;;;;;;11.51;100.00;97595.81;4383156;32;20030;-69
2022/09/18 00:37:58;;;;;;;10.18;3.53;;;;;;;11.29;100.00;97561.34;4420093;32;20056;-72
2022/09/18 00:40:25;;;;;;;8.95;3.40;;;;;;;11.31;100.00;97601.47;4428387;32;20041;-70
2022/09/18 00:42:51;;;;;;;9.00;3.05;;;;;;;11.44;100.00;97606.16;4422408;32;20037;-69
2022/09/18 00:45:18;;;;;;;13.15;3.67;;;;;;;11.57;100.00;97605.44;4428560;32;20054;-70
2022/09/18 00:47:48;;;;;;;11.88;3.22;;;;;;;11.03;100.00;97542.03;4428942;32;20048;-70
2022/09/18 00:50:20;;;;;;;9.75;3.53;;;;;;;11.44;100.00;97595.38;4396555;32;20180;-68
2022/09/18 00:53:00;;;;;;;5.53;2.85;;;;;;;11.20;100.00;97569.28;4383502;32;20042;-69
2022/09/18 00:55:31;;;;;;;9.05;2.90;;;;;;;11.32;100.00;97571.53;4382413;32;20082;-72
2022/09/18 00:58:00;;;;;;;7.43;3.30;;;;;;;11.48;100.00;97617.94;4383465;32;20187;-69
2022/09/18 01:00:28;;;;;;;10.75;2.97;;;;;;;11.37;100.00;97594.91;4387604;32;20049;-69
2022/09/18 01:02:55;;;;;;;12.23;2.95;;;;;;;11.45;100.00;97610.44;4398487;32;20034;-70
2022/09/18 01:05:50;;;;;;;12.13;2.78;;;;;;;11.34;100.00;97611.66;4396298;32;20091;-73
2022/09/18 01:08:31;;;;;;;15.48;4.80;;;;;;;11.40;100.00;97610.50;4406093;32;20031;-69
2022/09/18 01:11:06;;;;;;;11.27;4.28;;;;;;;11.36;100.00;97614.87;4397349;32;20042;-69
2022/09/18 01:13:52;;;;;;;8.73;2.92;;;;;;;11.22;100.00;97580.56;4408583;32;20030;-69
2022/09/18 01:16:40;;;;;;;10.13;2.60;;;;;;;11.12;100.00;97618.41;4411327;32;20074;-72
2022/09/18 01:19:37;;;;;;;7.28;2.40;;;;;;;10.88;100.00;97557.28;4408384;32;20073;-69
2022/09/18 01:22:42;;;;;;;9.48;2.25;;;;;;;11.38;100.00;97608.09;4405496;32;20155;-69
2022/09/18 01:25:43;;;;;;;18.62;3.37;;;;;;;11.34;100.00;97611.66;4411856;32;20137;-70
2022/09/18 01:28:48;;;;;;;4.87;2.10;;;;;;;10.99;100.00;97573.31;4413186;32;20143;-68
2022/09/18 01:32:04;;;;;;;8.13;2.37;;;;;;;10.56;100.00;97532.88;4408281;32;20055;-68
2022/09/18 01:34:43;;;;;;;4.97;1.80;;;;;;;10.74;100.00;97599.44;4321551;33;20119;-69
2022/09/18 01:37:20;;;;;;;8.07;2.22;;;;;;;10.86;100.00;97621.38;4337811;33;20211;-69
2022/09/18 01:40:03;;;;;;;13.98;2.55;;;;;;;11.10;100.00;97625.94;4337994;33;20529;-69
2022/09/18 01:42:32;;;;;;;8.07;2.45;;;;;;;11.24;100.00;97628.75;4337989;33;20113;-68
2022/09/18 01:45:03;;;;;;;9.73;3.42;;;;;;;10.96;100.00;97595.41;4335835;33;20119;-70
2022/09/18 01:47:36;;;;;;;5.87;2.33;;;;;;;11.12;100.00;97626.50;4337364;33;20032;-69
2022/09/18 01:50:06;;;;;;;4.43;1.70;;;;;;;10.94;100.00;97589.53;4337405;33;20106;-68
2022/09/18 01:52:41;;;;;;;3.03;1.58;;;;;;;11.16;100.00;97613.25;4314260;33;20029;-71
2022/09/18 01:55:13;;;;;;;1.70;1.00;;;;;;;11.15;100.00;97617.00;4325959;33;20078;-68
2022/09/18 01:57:48;;;;;;;3.47;1.83;;;;;;;11.14;100.00;97575.81;4323123;33;20083;-68
2022/09/18 02:00:16;;;;;;;23.00;2.87;;;;;;;11.44;100.00;97617.72;4321121;33;20380;-69
2022/09/18 02:03:04;;;;;;;2.92;1.50;;;;;;;11.50;100.00;97609.56;4322397;33;20028;-68
2022/09/18 02:05:37;;;;;;;6.82;1.60;;;;;;;11.27;100.00;97617.41;4330004;33;20044;-68
2022/09/18 02:08:30;;;;;;;3.65;1.60;;;;;;;11.21;100.00;97608.56;4334561;33;20300;-71
2022/09/18 02:11:05;;;;;;;5.68;1.37;;;;;;;10.77;100.00;97512.72;4356070;32;20047;-69
2022/09/18 02:13:39;;;;;;;7.75;1.40;;;;;;;11.31;100.00;97612.25;4373890;32;20057;-68
2022/09/18 02:16:13;;;;;;;1.42;1.20;;;;;;;10.67;100.00;97523.59;4356727;32;20035;-68
2022/09/18 02:18:46;;;;;;;6.40;1.55;;;;;;;10.80;100.00;97563.31;4364675;32;20039;-69
2022/09/18 02:21:17;;;;;;;5.12;1.50;;;;;;;10.94;100.00;97576.06;4367375;32;20069;-69
2022/09/18 02:23:45;;;;;;;3.15;1.65;;;;;;;11.20;100.00;97611.56;4394606;32;20064;-69
2022/09/18 02:26:13;;;;;;;3.35;1.02;;;;;;;11.00;100.00;97599.16;4412516;32;20047;-69
2022/09/18 02:28:42;;;;;;;3.30;1.12;;;;;;;10.82;100.00;97611.47;4412814;32;20123;-68
2022/09/18 02:31:11;;;;;;;1.55;1.02;;;;;;;10.93;100.00;97607.59;4412274;32;20019;-69
2022/09/18 02:33:38;;;;;;;1.05;0.98;;;;;;;10.94;100.00;97608.37;4410436;32;20421;-69
2022/09/18 02:36:23;;;;;;;2.62;1.77;;;;;;;10.66;100.00;97570.47;4412414;32;20318;-69
2022/09/18 02:39:00;;;;;;;2.65;1.00;;;;;;;10.75;100.00;97606.41;4419111;32;20328;-69
2022/09/18 02:41:59;;;;;;;5.37;1.60;;;;;;;10.51;100.00;97606.38;4427144;32;20055;-69
2022/09/18 02:44:47;;;;;;;3.12;1.23;;;;;;;10.47;100.00;97600.78;4423495;32;20034;-69
2022/09/18 02:47:24;;;;;;;4.10;1.05;;;;;;;10.73;100.00;97597.81;4396965;32;20413;-69
2022/09/18 02:50:27;;;;;;;1.67;0.85;;;;;;;10.63;100.00;97589.88;4409317;32;20074;-69
2022/09/18 02:53:11;;;;;;;4.50;1.17;;;;;;;10.61;100.00;97589.31;4412608;32;20072;-69
2022/09/18 02:56:07;;;;;;;5.20;1.20;;;;;;;10.78;100.00;97581.59;4412887;32;20022;-72
2022/09/18 02:58:46;;;;;;;3.12;1.12;;;;;;;10.56;100.00;97597.47;4389319;32;20093;-69
2022/09/18 03:01:15;;;;;;;1.92;0.73;;;;;;;10.49;100.00;97593.22;4397693;32;20065;-70
2022/09/18 03:03:42;;;;;;;4.95;1.45;;;;;;;10.50;100.00;97573.31;4398166;32;20093;-69
2022/09/18 03:06:09;;;;;;;4.47;1.00;;;;;;;10.14;100.00;97576.28;4399623;32;20068;-68
2022/09/18 03:08:36;;;;;;;1.10;1.00;;;;;;;10.38;100.00;97593.59;4399271;32;20034;-69
2022/09/18 03:11:04;;;;;;;1.42;1.33;;;;;;;10.51;100.00;97601.81;4398296;32;20344;-69
2022/09/18 03:13:31;;;;;;;10.52;1.30;;;;;;;10.27;100.00;97600.94;4383818;32;20074;-70
2022/09/18 03:15:57;;;;;;;2.92;1.20;;;;;;;10.22;100.00;97544.50;4384364;32;20039;-69
2022/09/18 03:18:25;;;;;;;3.30;1.55;;;;;;;10.23;100.00;97589.12;4384226;32;20054;-69
2022/09/18 03:20:53;;;;;;;5.10;1.40;;;;;;;10.24;100.00;97593.41;4384173;32;20031;-69
2022/09/18 03:23:20;;;;;;;2.47;1.08;;;;;;;10.01;100.00;97560.81;4382836;32;20097;-72
2022/09/18 03:25:50;;;;;;;5.95;1.25;;;;;;;10.33;100.00;97594.44;4383380;32;20057;-69
2022/09/18 03:28:17;;;;;;;3.87;1.30;;;;;;;10.38;100.00;97598.97;4384718;32;20053;-69
2022/09/18 03:30:44;;;;;;;2.03;0.95;;;;;;;10.13;100.00;97553.19;4387492;32;20514;-69
2022/09/18 03:33:12;;;;;;;5.20;1.52;;;;;;;10.13;100.00;97547.81;4411892;32;20093;-71
2022/09/18 03:35:41;;;;;;;3.42;1.05;;;;;;;9.86;100.00;97524.09;4411505;32;20458;-69
2022/09/18 03:38:07;;;;;;;3.50;1.58;;;;;;;10.24;100.00;97585.34;4414743;32;20056;-69
2022/09/18 03:40:34;;;;;;;7.95;1.77;;;;;;;10.18;100.00;97588.09;4413900;32;20030;-69
2022/09/18 03:43:01;;;;;;;2.30;1.15;;;;;;;10.03;100.00;97564.00;4414705;32;20068;-70
2022/09/18 03:45:27;;;;;;;1.85;1.00;;;;;;;10.13;100.00;97601.59;4410872;32;20022;-69
2022/09/18 03:47:54;;;;;;;5.25;0.90;;;;;;;9.91;100.00;97550.16;4414505;32;20088;-69
2022/09/18 03:50:22;;;;;;;4.65;1.10;;;;;;;9.88;100.00;97572.22;4414102;32;20052;-69
2022/09/18 03:52:48;;;;;;;1.30;1.20;;;;;;;10.13;100.00;97580.06;4414462;32;20444;-69
2022/09/18 03:55:17;;;;;;;5.95;1.30;;;;;;;9.63;100.00;97501.44;4421487;32;20651;-70
2022/09/18 03:57:45;;;;;;;7.82;2.30;;;;;;;9.84;100.00;97544.28;4420065;32;20924;-69
2022/09/18 04:00:14;;;;;;;4.87;1.42;;;;;;;9.62;100.00;97548.19;4429264;32;20049;-69
2022/09/18 04:02:42;;;;;;;6.75;1.83;;;;;;;10.01;100.00;97587.69;4422069;32;20057;-70
2022/09/18 04:05:14;;;;;;;2.47;0.90;;;;;;;10.05;100.00;97583.38;4411909;32;20042;-71
2022/09/18 04:07:47;;;;;;;5.70;2.08;;;;;;;9.94;100.00;97593.41;4414501;32;20080;-69
2022/09/18 04:10:15;;;;;;;6.12;1.60;;;;;;;9.80;100.00;97585.16;4398932;32;20060;-69
2022/09/18 04:12:44;;;;;;;5.72;1.20;;;;;;;9.57;100.00;97578.59;4398801;32;20035;-69
2022/09/18 04:15:14;;;;;;;3.55;1.55;;;;;;;9.72;100.00;97591.13;4396375;32;20127;-68
2022/09/18 04:17:42;;;;;;;2.15;1.33;;;;;;;9.27;100.00;97544.66;4398175;32;20533;-70
2022/09/18 04:20:09;;;;;;;8.20;1.75;;;;;;;9.57;100.00;97577.78;4397975;32;20022;-69
2022/09/18 04:22:36;;;;;;;4.47;1.60;;;;;;;9.62;100.00;97591.19;4398865;32;20042;-69
2022/09/18 04:25:04;;;;;;;2.87;1.17;;;;;;;9.17;100.00;97547.37;4396792;32;20047;-70
2022/09/18 04:27:30;;;;;;;2.70;1.65;;;;;;;9.62;100.00;97591.19;4413894;32;20076;-69
2022/09/18 04:29:58;;;;;;;3.80;1.10;;;;;;;9.40;100.00;97551.31;4413277;32;20454;-69
2022/09/18 04:32:24;;;;;;;4.70;1.45;;;;;;;9.64;100.00;97579.09;4368785;32;20065;-68
2022/09/18 04:34:51;;;;;;;5.78;1.67;;;;;;;9.63;100.00;97565.91;4368030;32;20491;-69
2022/09/18 04:37:18;;;;;;;4.85;1.75;;;;;;;9.42;100.00;97590.22;4366465;32;20389;-70
2022/09/18 04:39:45;;;;;;;5.85;1.60;;;;;;;9.60;100.00;97598.72;4361293;32;20424;-69
2022/09/18 04:42:12;;;;;;;2.70;1.98;;;;;;;9.60;100.00;97598.72;4355310;32;20039;-69
2022/09/18 04:44:39;;;;;;;2.00;1.73;;;;;;;9.35;100.00;97616.59;4353791;32;20381;-69
2022/09/18 04:47:08;;;;;;;3.95;1.98;;;;;;;8.97;100.00;97608.16;4342317;32;20032;-69
2022/09/18 04:49:35;;;;;;;5.15;2.08;;;;;;;8.89;100.00;97611.41;4363937;32;20060;-70
2022/09/18 04:52:02;;;;;;;2.10;1.92;;;;;;;9.03;100.00;97607.06;4395078;32;20477;-68
2022/09/18 04:54:28;;;;;;;15.32;2.67;;;;;;;8.97;100.00;97624.28;4397844;32;20068;-69
2022/09/18 04:56:56;;;;;;;7.55;2.35;;;;;;;9.01;100.00;97616.47;4367622;32;20053;-71
2022/09/18 04:59:22;;;;;;;8.52;1.90;;;;;;;9.08;100.00;97615.09;4365822;32;20105;-69
2022/09/18 05:01:53;;;;;;;12.77;2.30;;;;;;;8.77;100.00;97608.22;4366211;32;20958;-69
2022/09/18 05:04:19;;;;;;;6.57;1.98;;;;;;;8.99;100.00;97624.78;4366454;32;20391;-69
2022/09/18 05:06:47;;;;;;;2.87;1.92;;;;;;;8.98;100.00;97625.06;4368223;32;20040;-69
2022/09/18 05:09:14;;;;;;;12.82;2.75;;;;;;;8.67;100.00;97587.59;4368116;32;20382;-68
2022/09/18 05:11:40;;;;;;;4.97;2.00;;;;;;;8.91;100.00;97625.34;4363349;32;20088;-68
2022/09/18 05:14:07;;;;;;;4.87;2.12;;;;;;;9.06;100.00;97621.81;4368220;32;20052;-68
2022/09/18 05:16:34;;;;;;;6.10;2.20;;;;;;;9.14;100.00;97625.81;4367339;32;20040;-68
2022/09/18 05:19:05;;;;;;;9.80;2.47;;;;;;;8.79;100.00;97579.22;4394072;32;20356;-69
2022/09/18 05:21:32;;;;;;;5.93;2.47;;;;;;;8.76;100.00;97590.50;4363051;32;20109;-73
2022/09/18 05:23:59;;;;;;;16.85;2.37;;;;;;;9.17;100.00;97628.75;4366742;32;20450;-69
2022/09/18 05:26:25;;;;;;;6.93;2.00;;;;;;;9.28;100.00;97632.19;4382770;32;20062;-69
2022/09/18 05:28:54;;;;;;;7.87;2.08;;;;;;;9.15;100.00;97622.06;4377327;32;20031;-69
2022/09/18 05:31:21;;;;;;;7.87;2.22;;;;;;;9.00;100.00;97617.53;4371507;32;20468;-72
2022/09/18 05:33:48;;;;;;;6.53;2.30;;;;;;;9.13;100.00;97637.66;4381004;32;20024;-70
2022/09/18 05:36:14;;;;;;;4.75;2.37;;;;;;;8.72;100.00;97588.34;4384612;32;20765;-70
2022/09/18 05:38:41;;;;;;;7.05;2.20;;;;;;;8.95;100.00;97637.16;4395088;32;20084;-69
2022/09/18 05:41:08;;;;;;;6.28;2.12;;;;;;;8.89;100.00;97589.94;4383183;32;20042;-69
2022/09/18 05:43:34;;;;;;;3.00;2.22;;;;;;;8.80;100.00;97596.94;4380164;32;20101;-70
2022/09/18 05:46:06;;;;;;;6.17;2.20;;;;;;;8.99;100.00;97627.47;4381936;32;20088;-69
2022/09/18 05:48:33;;;;;;;7.82;2.72;;;;;;;8.75;100.00;97591.59;4382074;32;20410;-69
2022/09/18 05:51:00;;;;;;;2.87;2.42;;;;;;;9.00;100.00;97629.09;4367093;32;20043;-69
2022/09/18 05:53:26;;;;;;;13.52;2.40;;;;;;;8.81;100.00;97630.75;4378569;32;20053;-72
2022/09/18 05:55:54;;;;;;;5.85;2.33;;;;;;;8.72;100.00;97592.94;4381621;32;20050;-69
2022/09/18 05:58:21;;;;;;;9.27;2.65;;;;;;;8.90;100.00;97634.47;4395197;32;20114;-70
2022/09/18 06:00:51;;;;;;;5.32;2.03;;;;;;;8.61;100.00;97594.03;4366599;32;20086;-69
2022/09/18 06:03:18;;;;;;;6.40;2.75;;;;;;;8.94;100.00;97630.19;4366929;32;20390;-73
2022/09/18 06:05:51;;;;;;;5.60;2.67;;;;;;;9.30;100.00;97638.09;4347631;32;20106;-70
2022/09/18 06:08:18;;;;;;;5.97;2.85;;;;;;;9.25;100.00;97640.81;4352302;32;20043;-71
2022/09/18 06:10:44;;;;;;;10.57;2.35;;;;;;;8.88;100.00;97566.84;4351834;33;20040;-69
2022/09/18 06:13:14;;;;;;;8.45;2.40;;;;;;;9.13;100.00;97598.16;4335746;33;20110;-69
2022/09/18 06:15:48;;;;;;;8.85;2.28;;;;;;;9.20;100.00;97601.34;4347586;33;20073;-71
2022/09/18 06:18:17;;;;;;;5.70;2.60;;;;;;;8.90;100.00;97596.91;4350759;33;20055;-70
2022/09/18 06:20:55;;;;;;;11.60;3.42;;;;;;;9.07;100.00;97600.06;4344431;33;20024;-69
2022/09/18 06:23:24;;;;;;;9.93;3.33;;;;;;;9.39;100.00;97625.69;4380726;32;20056;-72
2022/09/18 06:25:57;;;;;;;5.87;3.10;;;;;;;9.15;100.00;97640.84;4372348;32;20086;-69
2022/09/18 06:28:23;;;;;;;7.03;2.95;;;;;;;9.38;100.00;97655.53;4378014;32;20053;-70
2022/09/18 06:30:50;;;;;;;4.70;2.87;;;;;;;9.06;100.00;97646.81;4384452;32;20065;-70
2022/09/18 06:33:17;;;;;;;10.23;3.28;;;;;;;9.36;100.00;97642.38;4396580;32;20039;-72
2022/09/18 06:35:47;;;;;;;13.68;2.87;;;;;;;9.33;100.00;97648.28;4399526;32;20055;-69
2022/09/18 06:38:16;;;;;;;4.82;2.87;;;;;;;9.33;100.00;97648.28;4400793;32;20039;-69
2022/09/18 06:40:53;;;;;;;7.12;3.10;;;;;;;9.30;100.00;97648.84;4400298;32;20039;-71
2022/09/18 06:43:20;;;;;;;9.65;3.62;;;;;;;9.23;100.00;97605.38;4416358;32;20042;-70
2022/09/18 06:45:53;;;;;;;4.95;2.97;;;;;;;9.07;100.00;97608.13;4435422;32;20925;-70
2022/09/18 06:48:24;;;;;;;5.18;3.35;;;;;;;9.28;100.00;97640.25;4432629;32;20090;-71
2022/09/18 06:50:55;;;;;;;7.10;3.72;;;;;;;9.16;100.00;97626.34;4433074;32;20086;-70
2022/09/18 06:53:24;;;;;;;6.62;2.92;;;;;;;9.17;100.00;97617.22;4431034;32;20111;-71
2022/09/18 06:55:51;;;;;;;10.95;4.53;;;;;;;9.61;100.00;97654.88;4431136;32;20050;-70
2022/09/18 06:58:20;;;;;;;9.55;3.20;;;;;;;9.27;100.00;97617.97;4410617;32;20074;-71
2022/09/18 07:00:49;;;;;;;5.65;3.53;;;;;;;9.33;100.00;97616.06;4415693;32;20064;-70
2022/09/18 07:03:15;;;;;;;7.90;3.12;;;;;;;9.54;100.00;97649.03;4413223;32;20042;-70
2022/09/18 07:05:53;;;;;;;4.22;3.65;;;;;;;9.20;100.00;97659.63;4408584;32;20074;-70
2022/09/18 07:08:20;;;;;;;6.55;4.12;;;;;;;9.24;100.00;97623.09;4409143;32;20611;-71
2022/09/18 07:10:49;;;;;;;6.03;3.70;;;;;;;8.90;100.00;97610.31;4398145;32;20053;-71
2022/09/18 07:13:17;;;;;;;4.87;3.53;;;;;;;9.04;100.00;97576.44;4398566;32;20083;-70
2022/09/18 07:15:47;;;;;;;5.82;3.60;;;;;;;9.55;100.00;97663.25;4399181;32;20080;-70
2022/09/18 07:18:13;;;;;;;5.32;3.85;;;;;;;9.51;100.00;97621.88;4399520;32;20060;-70
2022/09/18 07:20:40;;;;;;;5.53;4.10;;;;;;;9.45;100.00;97619.22;4398887;32;20479;-69
2022/09/18 07:23:07;;;;;;;5.93;4.18;;;;;;;9.72;100.00;97647.56;4382714;32;20086;-70
2022/09/18 07:25:36;;;;;;;5.68;3.80;;;;;;;9.52;100.00;97623.50;4382736;32;20078;-70
2022/09/18 07:28:06;;;;;;;5.68;3.10;;;;;;;9.36;100.00;97620.88;4368129;32;20058;-68
2022/09/18 07:30:38;;;;;;;5.62;3.55;;;;;;;9.35;100.00;97619.28;4380455;32;20366;-69
2022/09/18 07:33:07;;;;;;;5.43;3.10;;;;;;;9.80;100.00;97665.78;4380859;32;20035;-71
2022/09/18 07:35:37;;;;;;;5.65;3.78;;;;;;;9.56;100.00;97667.56;4382056;32;20073;-69
2022/09/18 07:38:05;;;;;;;4.68;3.17;;;;;;;9.92;100.00;97667.34;4382159;32;20063;-69
2022/09/18 07:40:34;;;;;;;6.85;2.95;;;;;;;10.18;100.00;97668.00;4380592;32;20335;-68
2022/09/18 07:43:07;;;;;;;4.90;3.00;;;;;;;9.89;100.00;97667.91;4365553;32;20057;-71
2022/09/18 07:45:34;;;;;;;;;;;;;;;9.54;100.00;97610.59;4360230;32;20040;-67
2022/09/18 07:48:03;;;;;;;6.32;3.33;;;;;;;9.88;100.00;97659.03;4367015;32;19939;-73
2022/09/18 07:50:31;;;;;;;3.53;3.33;;;;;;;10.32;100.00;97652.00;4369051;32;20096;-70
2022/09/18 07:53:01;;;;;;;6.03;3.17;;;;;;;9.56;100.00;97592.31;4367201;32;20058;-74
2022/09/18 07:55:28;;;;;;;4.93;3.25;;;;;;;10.26;100.00;97653.13;4382883;32;20197;-70
2022/09/18 07:58:01;;;;;;;3.55;3.35;;;;;;;10.24;100.00;97656.09;4354091;32;20039;-70
2022/09/18 08:00:33;;;;;;;7.82;3.75;;;;;;;10.23;100.00;97614.16;4353747;32;20395;-69
2022/09/18 08:03:02;;;;;;;;;;;;;;;10.08;100.00;97647.31;4367183;32;20063;-72
2022/09/18 08:05:40;;;;;;;7.90;3.60;;;;;;;10.40;100.00;97664.88;4384271;32;19934;-69
2022/09/18 08:08:11;;;;;;;5.37;3.33;;;;;;;10.09;100.00;97615.87;4398733;32;20064;-68
2022/09/18 08:10:41;;;;;;;6.00;4.37;;;;;;;10.29;100.00;97668.69;4396373;32;20154;-71
2022/09/18 08:13:08;;;;;;;3.87;3.58;;;;;;;10.36;100.00;97663.84;4397181;32;20043;-68
2022/09/18 08:15:39;;;;;;;3.78;3.47;;;;;;;10.36;100.00;97620.78;4397576;32;20043;-68
2022/09/18 08:18:06;;;;;;;4.05;3.62;;;;;;;10.75;100.00;97665.62;4397646;32;20380;-70
2022/09/18 08:20:34;;;;;;;4.03;3.62;;;;;;;10.82;100.00;97655.34;4395669;32;20107;-72
2022/09/18 08:23:02;;;;;;;3.40;3.10;;;;;;;10.82;100.00;97665.31;4397187;32;20070;-69
2022/09/18 08:25:29;;;;;;;3.08;2.67;;;;;;;10.98;100.00;97663.28;4398448;32;20038;-69
2022/09/18 08:28:04;;;;;;;4.07;3.10;;;;;;;10.44;100.00;97563.66;4399546;32;20061;-69
2022/09/18 08:30:31;;;;;;;3.05;2.60;;;;;;;10.89;100.00;97612.72;4365319;32;20053;-69
2022/09/18 08:33:01;;;;;;;2.42;2.28;;;;;;;10.77;100.00;97617.72;4365728;32;20136;-69
2022/09/18 08:35:29;;;;;;;1.92;1.83;;;;;;;10.66;100.00;97643.94;4367346;32;20057;-68
2022/09/18 08:37:59;;;;;;;2.40;2.00;;;;;;;10.74;100.00;97669.44;4367381;32;20046;-68
2022/09/18 08:40:52;;;;;;;3.17;2.00;;;;;;;9.69;100.00;97524.50;4380996;32;20395;-72
2022/09/18 08:43:40;;;;;;;2.55;2.35;;;;;;;10.78;100.00;97659.69;4395784;32;20039;-69
2022/09/18 08:46:34;;;;;;;2.37;1.90;;;;;;;10.54;100.00;97628.13;4393685;32;20043;-68
2022/09/18 08:49:41;;;;;;;2.12;1.90;;;;;;;10.83;100.00;97673.12;4396158;32;20046;-69
2022/09/18 08:52:15;;;;;;;2.90;1.55;;;;;;;11.13;100.00;97665.00;4361194;32;20052;-68
2022/09/18 08:54:47;;;;;;;1.55;1.45;;;;;;;10.78;100.00;97627.38;4397604;32;20183;-69
2022/09/18 08:57:41;;;;;;;3.70;2.30;;;;;;;11.16;100.00;97659.84;4396237;32;20383;-69
2022/09/18 09:00:22;;;;;;;2.80;1.20;;;;;;;11.30;100.00;97664.53;4396154;32;20038;-67
2022/09/18 09:02:59;;;;;;;1.42;1.33;;;;;;;11.06;100.00;97638.41;4423997;32;20058;-68
2022/09/18 09:05:34;;;;;;;1.35;1.12;;;;;;;11.02;100.00;97667.00;4428055;32;20046;-66
2022/09/18 09:08:29;;;;;;;1.20;1.20;;;;;;;11.11;100.00;97613.31;4428665;32;20164;-69
2022/09/18 09:11:22;;;;;;;2.53;1.77;;;;;;;11.21;100.00;97657.06;4429651;32;20386;-68
2022/09/18 09:13:58;;;;;;;1.90;1.75;;;;;;;10.59;100.00;97651.50;4424425;32;20041;-67
2022/09/18 09:17:10;;;;;;;2.47;2.08;;;;;;;11.00;100.00;97669.19;4425833;32;20064;-68
2022/09/18 09:19:52;;;;;;;2.08;1.98;;;;;;;10.61;100.00;97656.62;4381261;32;20392;-67
2022/09/18 09:22:38;;;;;;;3.62;1.50;;;;;;;10.58;100.00;97670.63;4382025;32;20120;-67
2022/09/18 09:25:18;;;;;;;2.10;1.90;;;;;;;10.88;100.00;97648.81;4378854;32;20047;-67
2022/09/18 09:27:59;;;;;;;3.40;2.47;;;;;;;11.12;100.00;97658.81;4376802;32;20052;-69
2022/09/18 09:30:35;;;;;;;2.25;2.05;;;;;;;11.40;100.00;97664.41;4380442;32;20903;-69
2022/09/18 09:33:15;;;;;;;2.00;1.90;;;;;;;11.57;100.00;97662.03;4349411;32;20133;-70
2022/09/18 09:35:45;;;;;;;3.03;1.90;;;;;;;11.09;100.00;97621.69;4350026;32;20454;-73
2022/09/18 09:38:33;;;;;;;2.05;1.83;;;;;;;10.88;100.00;97543.81;4349968;32;20169;-69
2022/09/18 09:41:12;;;;;;;2.22;2.03;;;;;;;11.72;100.00;97671.00;4350451;32;20553;-69
2022/09/18 09:44:03;;;;;;;3.28;1.50;;;;;;;11.81;100.00;97655.78;4348809;32;20429;-70
2022/09/18 09:46:54;;;;;;;1.83;1.73;;;;;;;12.00;100.00;97666.63;4335777;33;20356;-70
2022/09/18 09:52:25;;;;;;;1.58;1.58;;;;;;;12.03;100.00;97665.22;4355145;32;20522;-67
2022/09/18 09:55:00;;;;;;;2.05;1.70;;;;;;;11.79;100.00;97663.34;4366029;32;20027;-68
2022/09/18 09:57:27;;;;;;;2.00;1.90;;;;;;;11.70;100.00;97619.28;4353029;33;20043;-67
2022/09/18 10:00:12;;;;;;;2.53;1.85;;;;;;;11.55;100.00;97666.94;4350822;33;20456;-69
2022/09/18 10:03:00;;;;;;;1.75;1.62;;;;;;;11.47;100.00;97670.22;4352852;32;20105;-67
2022/09/18 10:05:48;;;;;;;3.05;1.70;;;;;;;11.68;100.00;97672.69;4369221;32;20035;-68
2022/09/18 10:08:17;;;;;;;3.55;2.47;;;;;;;11.43;100.00;97637.69;4370115;32;20192;-68
2022/09/18 10:10:52;;;;;;;1.45;1.45;;;;;;;11.41;100.00;97652.56;4370960;32;20400;-68
2022/09/18 10:13:21;;;;;;;4.43;1.77;;;;;;;11.54;100.00;97680.69;4371234;32;20069;-68
2022/09/18 10:15:52;;;;;;;3.15;1.77;;;;;;;11.60;100.00;97693.03;4369276;32;20406;-70
2022/09/18 10:18:24;;;;;;;1.83;1.73;;;;;;;11.83;100.00;97694.06;4381176;32;20810;-67
2022/09/18 10:20:57;;;;;;;1.85;1.67;;;;;;;12.10;100.00;97688.03;4385551;32;20059;-68
2022/09/18 10:23:48;;;;;;;3.42;1.85;;;;;;;11.97;100.00;97678.78;4385690;32;20035;-67
2022/09/18 10:26:30;;;;;;;1.62;1.62;;;;;;;11.98;100.00;97661.50;4385553;32;20043;-68
2022/09/18 10:28:57;;;;;;;2.15;1.95;;;;;;;12.14;100.00;97693.66;4405249;32;20037;-69
2022/09/18 10:31:52;;;;;;;2.35;2.15;;;;;;;12.48;100.00;97687.22;4413392;32;20046;-69
2022/09/18 10:34:38;;;;;;;1.65;1.30;;;;;;;12.61;100.00;97685.66;4414806;32;20031;-68
2022/09/18 10:37:14;;;;;;;2.33;2.20;;;;;;;12.82;100.00;97686.09;4416940;32;20519;-69
2022/09/18 10:39:52;;;;;;;3.05;2.67;;;;;;;13.06;100.00;97686.72;4417678;32;20077;-68
2022/09/18 10:42:25;;;;;;;2.12;2.03;;;;;;;12.55;100.00;97687.62;4417863;32;20370;-67
2022/09/18 10:45:01;;;;;;;2.58;1.87;;;;;;;12.08;100.00;97670.56;4417092;32;20080;-68
2022/09/18 10:47:32;;;;;;;3.60;2.20;;;;;;;11.62;100.00;97618.81;4417978;32;20042;-68
2022/09/18 10:50:05;;;;;;;3.62;2.53;;;;;;;11.81;100.00;97650.41;4416409;32;20302;-69
2022/09/18 10:52:35;;;;;;;2.25;2.05;;;;;;;12.38;100.00;97682.78;4416765;32;20052;-69
2022/09/18 10:55:08;;;;;;;1.98;1.87;;;;;;;12.68;100.00;97705.78;4417444;32;20030;-67
2022/09/18 10:57:47;;;;;;;4.72;2.42;;;;;;;12.74;100.00;97694.88;4417774;32;20182;-66
2022/09/18 11:00:32;;;;;;;3.03;1.85;;;;;;;13.02;100.00;97695.72;4416111;32;20474;-68
2022/09/18 11:03:13;;;;;;;2.35;1.92;;;;;;;13.39;100.00;97662.34;4416233;32;20469;-67
2022/09/18 11:05:48;;;;;;;4.43;2.08;;;;;;;12.63;100.00;97695.03;4415681;32;20061;-68
2022/09/18 11:08:18;;;;;;;3.72;2.10;;;;;;;12.28;100.00;97618.16;4417107;32;20046;-68
2022/09/18 11:10:47;;;;;;;2.55;2.00;;;;;;;12.82;100.00;97665.28;4417888;32;20030;-69
2022/09/18 11:13:22;;;;;;;2.70;1.90;;;;;;;13.36;100.00;97691.87;4417732;32;20393;-68
2022/09/18 11:15:56;;;;;;;2.95;1.98;;;;;;;14.02;100.00;97689.69;4414886;32;20039;-68
2022/09/18 11:18:26;;;;;;;2.42;1.83;;;;;;;14.32;100.00;97700.94;4417232;32;20455;-68
2022/09/18 11:20:55;;;;;;;3.28;1.90;;;;;;;14.66;100.00;97676.03;4417678;32;20344;-68
2022/09/18 11:23:25;;;;;;;1.77;1.67;;;;;;;13.75;100.00;97661.59;4415178;32;20060;-69
2022/09/18 11:26:09;;;;;;;2.17;1.90;;;;;;;13.40;100.00;97663.13;4417202;32;20548;-68
2022/09/18 11:28:38;;;;;;;2.37;2.15;;;;;;;13.90;100.00;97705.66;4417406;32;20068;-68
2022/09/18 11:31:13;;;;;;;1.42;1.20;;;;;;;13.80;100.00;97693.13;4418163;32;20037;-70
2022/09/18 11:33:49;;;;;;;1.27;1.27;;;;;;;14.26;100.00;97694.81;4423369;32;20472;-68
2022/09/18 11:36:24;;;;;;;5.35;1.92;;;;;;;13.56;100.00;97647.41;4425817;32;20121;-67
2022/09/18 11:38:52;;;;;;;2.35;1.30;;;;;;;14.16;100.00;97678.81;4415788;32;20086;-69
2022/09/18 11:41:33;;;;;;;1.35;0.93;;;;;;;14.15;100.00;97699.69;4432029;32;20109;-68
2022/09/18 11:44:27;;;;;;;1.48;1.00;;;;;;;13.81;100.00;97706.34;4400010;32;20073;-67
2022/09/18 11:47:24;;;;;;;1.48;1.20;;;;;;;13.38;100.00;97628.28;4399825;32;20094;-68
2022/09/18 11:50:34;;;;;;;1.80;1.17;;;;;;;14.07;100.00;97692.28;4362998;32;20035;-72
2022/09/18 11:53:25;;;;;;;1.25;1.15;;;;;;;13.78;100.00;97700.75;4340303;33;20404;-67
2022/09/18 11:56:15;;;;;;;1.30;1.20;;;;;;;13.76;100.00;97692.94;4340079;33;20082;-67
2022/09/18 11:58:57;;;;;;;3.10;1.12;;;;;;;13.66;100.00;97697.75;4339009;33;20036;-69